sensor_id;sensor_type;location;lat;lon;timestamp;pressure;altitude;pressure_sealevel;temperature;humidity
61710;BME280;47633;51.494;5.386;2023-02-19T00:02:25;101738.19;;;19.52;46.69
61710;BME280;47633;51.494;5.386;2023-02-19T00:04:50;101744.44;;;19.51;46.48
61710;BME280;47633;51.494;5.386;2023-02-19T00:07:15;101747.28;;;19.48;46.58
61710;BME280;47633;51.494;5.386;2023-02-19T00:09:40;101736.00;;;19.46;46.43
61710;BME280;47633;51.494;5.386;2023-02-19T00:12:06;101740.19;;;19.48;46.42
61710;BME280;47633;51.494;5.386;2023-02-19T00:14:31;101731.53;;;19.46;46.31
61710;BME280;47633;51.494;5.386;2023-02-19T00:16:56;101742.13;;;19.46;46.32
61710;BME280;47633;51.494;5.386;2023-02-19T00:19:22;101730.94;;;19.43;46.37
61710;BME280;47633;51.494;5.386;2023-02-19T00:21:51;101741.41;;;19.44;46.43
61710;BME280;47633;51.494;5.386;2023-02-19T00:24:17;101738.00;;;19.42;46.59
61710;BME280;47633;51.494;5.386;2023-02-19T00:26:44;101735.47;;;19.40;46.50
61710;BME280;47633;51.494;5.386;2023-02-19T00:29:15;101732.09;;;19.38;46.35
61710;BME280;47633;51.494;5.386;2023-02-19T00:31:41;101738.31;;;19.37;46.15
61710;BME280;47633;51.494;5.386;2023-02-19T00:34:08;101741.72;;;19.39;46.47
61710;BME280;47633;51.494;5.386;2023-02-19T00:36:36;101741.72;;;19.39;46.13
61710;BME280;47633;51.494;5.386;2023-02-19T00:39:03;101741.84;;;19.38;46.23
61710;BME280;47633;51.494;5.386;2023-02-19T00:41:28;101741.84;;;19.38;46.20
61710;BME280;47633;51.494;5.386;2023-02-19T00:44:03;101730.88;;;19.31;46.35
61710;BME280;47633;51.494;5.386;2023-02-19T00:46:35;101739.41;;;19.35;46.32
61710;BME280;47633;51.494;5.386;2023-02-19T00:49:00;101746.41;;;19.36;46.30
61710;BME280;47633;51.494;5.386;2023-02-19T00:51:28;101735.41;;;19.29;46.42
61710;BME280;47633;51.494;5.386;2023-02-19T00:53:54;101743.22;;;19.31;46.01
61710;BME280;47633;51.494;5.386;2023-02-19T00:56:19;101747.47;;;19.33;46.07
61710;BME280;47633;51.494;5.386;2023-02-19T00:58:45;101750.94;;;19.34;46.06
61710;BME280;47633;51.494;5.386;2023-02-19T01:01:11;101751.25;;;19.29;46.12
61710;BME280;47633;51.494;5.386;2023-02-19T01:03:37;101748.63;;;19.29;46.18
61710;BME280;47633;51.494;5.386;2023-02-19T01:06:04;101747.88;;;19.27;46.16
61710;BME280;47633;51.494;5.386;2023-02-19T01:08:30;101744.41;;;19.27;46.04
61710;BME280;47633;51.494;5.386;2023-02-19T01:10:56;101759.28;;;19.28;46.08
61710;BME280;47633;51.494;5.386;2023-02-19T01:13:22;101743.66;;;19.25;45.97
61710;BME280;47633;51.494;5.386;2023-02-19T01:15:47;101757.53;;;19.28;45.94
61710;BME280;47633;51.494;5.386;2023-02-19T01:18:12;101756.88;;;19.25;45.89
61710;BME280;47633;51.494;5.386;2023-02-19T01:20:40;101764.81;;;19.25;45.80
61710;BME280;47633;51.494;5.386;2023-02-19T01:23:06;101765.66;;;19.25;45.84
61710;BME280;47633;51.494;5.386;2023-02-19T01:25:31;101769.25;;;19.24;45.91
61710;BME280;47633;51.494;5.386;2023-02-19T01:27:56;101769.38;;;19.23;45.89
61710;BME280;47633;51.494;5.386;2023-02-19T01:30:22;101761.53;;;19.21;45.72
61710;BME280;47633;51.494;5.386;2023-02-19T01:32:47;101767.66;;;19.21;45.82
61710;BME280;47633;51.494;5.386;2023-02-19T01:35:12;101767.66;;;19.21;45.72
61710;BME280;47633;51.494;5.386;2023-02-19T01:37:37;101783.53;;;19.21;45.65
61710;BME280;47633;51.494;5.386;2023-02-19T01:40:03;101765.25;;;19.18;45.72
61710;BME280;47633;51.494;5.386;2023-02-19T01:42:28;101769.69;;;19.18;45.66
61710;BME280;47633;51.494;5.386;2023-02-19T01:47:59;101776.78;;;19.17;45.66
61710;BME280;47633;51.494;5.386;2023-02-19T01:50:27;101782.91;;;19.18;45.70
61710;BME280;47633;51.494;5.386;2023-02-19T01:52:54;101780.25;;;19.18;45.79
61710;BME280;47633;51.494;5.386;2023-02-19T01:55:20;101780.56;;;19.13;45.49
61710;BME280;47633;51.494;5.386;2023-02-19T01:57:47;101777.00;;;19.14;45.61
61710;BME280;47633;51.494;5.386;2023-02-19T02:00:16;101777.94;;;19.13;45.71
61710;BME280;47633;51.494;5.386;2023-02-19T02:02:44;101782.28;;;19.14;45.67
61710;BME280;47633;51.494;5.386;2023-02-19T02:05:22;101768.44;;;19.11;45.71
61710;BME280;47633;51.494;5.386;2023-02-19T02:07:49;101760.53;;;19.11;45.83
61710;BME280;47633;51.494;5.386;2023-02-19T02:10:33;101762.19;;;19.12;45.56
61710;BME280;47633;51.494;5.386;2023-02-19T02:12:58;101768.34;;;19.12;45.61
61710;BME280;47633;51.494;5.386;2023-02-19T02:15:28;101760.63;;;19.09;45.50
61710;BME280;47633;51.494;5.386;2023-02-19T02:18:04;101762.50;;;19.07;45.47
61710;BME280;47633;51.494;5.386;2023-02-19T02:21:10;101768.56;;;19.09;45.50
61710;BME280;47633;51.494;5.386;2023-02-19T02:34:38;101781.88;;;19.08;45.38
61710;BME280;47633;51.494;5.386;2023-02-19T02:37:06;101774.78;;;19.08;45.33
61710;BME280;47633;51.494;5.386;2023-02-19T02:39:35;101776.69;;;19.06;45.42
61710;BME280;47633;51.494;5.386;2023-02-19T02:42:00;101777.63;;;19.05;45.38
61710;BME280;47633;51.494;5.386;2023-02-19T02:44:44;101775.72;;;19.07;45.40
61710;BME280;47633;51.494;5.386;2023-02-19T02:47:33;101781.22;;;19.04;45.27
61710;BME280;47633;51.494;5.386;2023-02-19T02:50:08;101778.59;;;19.04;45.45
61710;BME280;47633;51.494;5.386;2023-02-19T02:52:37;101791.91;;;19.02;45.34
61710;BME280;47633;51.494;5.386;2023-02-19T02:55:24;101784.09;;;19.01;45.29
61710;BME280;47633;51.494;5.386;2023-02-19T02:57:53;101790.34;;;19.00;45.38
61710;BME280;47633;51.494;5.386;2023-02-19T03:00:19;101799.81;;;19.02;45.36
61710;BME280;47633;51.494;5.386;2023-02-19T03:02:45;101796.56;;;18.99;45.35
61710;BME280;47633;51.494;5.386;2023-02-19T03:05:19;101808.81;;;19.00;45.33
61710;BME280;47633;51.494;5.386;2023-02-19T03:08:23;101799.31;;;18.97;45.45
61710;BME280;47633;51.494;5.386;2023-02-19T03:10:54;101800.06;;;18.99;45.31
61710;BME280;47633;51.494;5.386;2023-02-19T03:13:33;101797.63;;;18.96;45.36
61710;BME280;47633;51.494;5.386;2023-02-19T03:16:23;101800.28;;;18.96;45.43
61710;BME280;47633;51.494;5.386;2023-02-19T03:19:10;101809.75;;;18.99;45.38
61710;BME280;47633;51.494;5.386;2023-02-19T03:22:08;101813.38;;;18.98;45.32
61710;BME280;47633;51.494;5.386;2023-02-19T03:24:49;101810.84;;;18.96;45.23
61710;BME280;47633;51.494;5.386;2023-02-19T03:27:35;101813.59;;;18.95;45.40
61710;BME280;47633;51.494;5.386;2023-02-19T03:30:08;101822.34;;;18.95;45.46
61710;BME280;47633;51.494;5.386;2023-02-19T03:32:39;101816.22;;;18.95;45.60
61710;BME280;47633;51.494;5.386;2023-02-19T03:35:19;101817.28;;;18.92;45.53
61710;BME280;47633;51.494;5.386;2023-02-19T03:38:10;101822.47;;;18.94;45.41
61710;BME280;47633;51.494;5.386;2023-02-19T03:40:47;101818.97;;;18.93;45.31
61710;BME280;47633;51.494;5.386;2023-02-19T03:43:20;101816.34;;;18.93;45.59
61710;BME280;47633;51.494;5.386;2023-02-19T03:48:35;101821.94;;;18.89;45.33
61710;BME280;47633;51.494;5.386;2023-02-19T03:54:12;101839.44;;;18.90;45.21
61710;BME280;47633;51.494;5.386;2023-02-19T03:57:02;101840.31;;;18.90;45.29
61710;BME280;47633;51.494;5.386;2023-02-19T03:59:42;101844.00;;;18.88;45.30
61710;BME280;47633;51.494;5.386;2023-02-19T04:02:11;101849.19;;;18.89;45.25
61710;BME280;47633;51.494;5.386;2023-02-19T04:04:55;101842.50;;;18.83;45.16
61710;BME280;47633;51.494;5.386;2023-02-19T04:07:24;101851.09;;;18.87;45.18
61710;BME280;47633;51.494;5.386;2023-02-19T04:09:51;101851.19;;;18.85;45.23
61710;BME280;47633;51.494;5.386;2023-02-19T04:12:18;101857.41;;;18.84;44.92
61710;BME280;47633;51.494;5.386;2023-02-19T04:14:49;101857.31;;;18.86;45.45
61710;BME280;47633;51.494;5.386;2023-02-19T04:17:24;101867.16;;;18.84;45.19
61710;BME280;47633;51.494;5.386;2023-02-19T04:19:52;101864.41;;;18.85;45.27
61710;BME280;47633;51.494;5.386;2023-02-19T04:22:18;101864.59;;;18.82;45.29
61710;BME280;47633;51.494;5.386;2023-02-19T04:24:49;101872.44;;;18.84;45.24
61710;BME280;47633;51.494;5.386;2023-02-19T04:27:16;101868.94;;;18.83;45.18
61710;BME280;47633;51.494;5.386;2023-02-19T04:29:42;101876.78;;;18.85;45.37
61710;BME280;47633;51.494;5.386;2023-02-19T04:32:11;101871.56;;;18.83;45.31
61710;BME280;47633;51.494;5.386;2023-02-19T04:34:37;101882.13;;;18.83;45.23
61710;BME280;47633;51.494;5.386;2023-02-19T04:37:03;101884.78;;;18.83;45.20
61710;BME280;47633;51.494;5.386;2023-02-19T04:39:28;101890.06;;;18.83;45.10
61710;BME280;47633;51.494;5.386;2023-02-19T04:41:54;101889.13;;;18.84;45.10
61710;BME280;47633;51.494;5.386;2023-02-19T04:44:19;101903.19;;;18.85;45.30
61710;BME280;47633;51.494;5.386;2023-02-19T04:46:44;101904.97;;;18.84;45.18
61710;BME280;47633;51.494;5.386;2023-02-19T04:49:10;101906.84;;;18.82;44.98
61710;BME280;47633;51.494;5.386;2023-02-19T04:51:35;101906.78;;;18.84;45.09
61710;BME280;47633;51.494;5.386;2023-02-19T04:54:00;101906.00;;;18.82;45.44
61710;BME280;47633;51.494;5.386;2023-02-19T04:56:26;101911.38;;;18.80;45.03
61710;BME280;47633;51.494;5.386;2023-02-19T04:58:51;101925.44;;;18.81;45.37
61710;BME280;47633;51.494;5.386;2023-02-19T05:01:16;101916.78;;;18.79;45.19
61710;BME280;47633;51.494;5.386;2023-02-19T05:03:43;101930.72;;;18.81;45.25
61710;BME280;47633;51.494;5.386;2023-02-19T05:06:10;101934.28;;;18.80;45.20
61710;BME280;47633;51.494;5.386;2023-02-19T05:08:36;101938.63;;;18.81;45.10
61710;BME280;47633;51.494;5.386;2023-02-19T05:11:03;101943.91;;;18.81;45.32
61710;BME280;47633;51.494;5.386;2023-02-19T05:13:29;101944.00;;;18.79;45.50
61710;BME280;47633;51.494;5.386;2023-02-19T05:15:57;101959.03;;;18.79;45.21
61710;BME280;47633;51.494;5.386;2023-02-19T05:18:23;101951.94;;;18.79;45.14
61710;BME280;47633;51.494;5.386;2023-02-19T05:20:49;101959.03;;;18.79;45.18
61710;BME280;47633;51.494;5.386;2023-02-19T05:23:14;101953.06;;;18.75;45.21
61710;BME280;47633;51.494;5.386;2023-02-19T05:25:39;101959.13;;;18.77;45.14
61710;BME280;47633;51.494;5.386;2023-02-19T05:28:05;101965.34;;;18.76;45.10
61710;BME280;47633;51.494;5.386;2023-02-19T05:33:08;101958.34;;;18.75;45.17
61710;BME280;47633;51.494;5.386;2023-02-19T05:35:39;101968.91;;;18.75;45.07
61710;BME280;47633;51.494;5.386;2023-02-19T05:38:04;101967.16;;;18.76;44.96
61710;BME280;47633;51.494;5.386;2023-02-19T05:40:32;101977.81;;;18.74;45.14
61710;BME280;47633;51.494;5.386;2023-02-19T05:42:57;101970.00;;;18.73;45.17
61710;BME280;47633;51.494;5.386;2023-02-19T05:45:22;101974.31;;;18.74;45.23
61710;BME280;47633;51.494;5.386;2023-02-19T05:47:48;101974.41;;;18.72;45.26
61710;BME280;47633;51.494;5.386;2023-02-19T05:50:13;101979.59;;;18.74;45.22
61710;BME280;47633;51.494;5.386;2023-02-19T05:52:38;101985.75;;;18.74;45.11
61710;BME280;47633;51.494;5.386;2023-02-19T05:55:04;101978.75;;;18.73;45.08
61710;BME280;47633;51.494;5.386;2023-02-19T05:57:29;101976.41;;;18.68;45.08
61710;BME280;47633;51.494;5.386;2023-02-19T05:59:55;101975.38;;;18.71;44.89
61710;BME280;47633;51.494;5.386;2023-02-19T06:02:20;101975.69;;;18.66;45.19
61710;BME280;47633;51.494;5.386;2023-02-19T06:04:45;101972.94;;;18.68;45.25
61710;BME280;47633;51.494;5.386;2023-02-19T06:07:11;101974.50;;;18.71;45.21
61710;BME280;47633;51.494;5.386;2023-02-19T06:09:36;101973.78;;;18.68;45.20
61710;BME280;47633;51.494;5.386;2023-02-19T06:12:01;101970.28;;;18.68;45.22
61710;BME280;47633;51.494;5.386;2023-02-19T06:14:26;101969.47;;;18.67;45.08
61710;BME280;47633;51.494;5.386;2023-02-19T06:16:52;101975.69;;;18.66;45.16
61710;BME280;47633;51.494;5.386;2023-02-19T06:19:17;101977.38;;;18.67;45.45
61710;BME280;47633;51.494;5.386;2023-02-19T06:21:42;101981.88;;;18.65;45.36
61710;BME280;47633;51.494;5.386;2023-02-19T06:24:08;101991.41;;;18.68;45.47
61710;BME280;47633;51.494;5.386;2023-02-19T06:26:34;101986.22;;;18.66;45.44
61710;BME280;47633;51.494;5.386;2023-02-19T06:28:59;101985.41;;;18.66;45.85
61710;BME280;47633;51.494;5.386;2023-02-19T06:31:24;101998.16;;;18.72;45.65
61710;BME280;47633;51.494;5.386;2023-02-19T06:33:50;102001.88;;;18.70;45.65
61710;BME280;47633;51.494;5.386;2023-02-19T06:36:18;102011.19;;;18.75;45.86
61710;BME280;47633;51.494;5.386;2023-02-19T06:38:44;102016.25;;;18.78;45.79
61710;BME280;47633;51.494;5.386;2023-02-19T06:41:10;102018.91;;;18.78;45.63
61710;BME280;47633;51.494;5.386;2023-02-19T06:43:36;102018.81;;;18.80;45.75
61710;BME280;47633;51.494;5.386;2023-02-19T06:46:04;102030.91;;;18.84;45.56
61710;BME280;47633;51.494;5.386;2023-02-19T06:48:31;102029.00;;;18.86;45.70
61710;BME280;47633;51.494;5.386;2023-02-19T06:50:56;102029.63;;;18.90;45.62
61710;BME280;47633;51.494;5.386;2023-02-19T06:53:22;102035.69;;;18.92;45.50
61710;BME280;47633;51.494;5.386;2023-02-19T06:55:59;102028.50;;;18.94;45.60
61710;BME280;47633;51.494;5.386;2023-02-19T06:58:25;102033.97;;;18.91;45.47
61710;BME280;47633;51.494;5.386;2023-02-19T07:00:52;102032.06;;;18.93;45.64
61710;BME280;47633;51.494;5.386;2023-02-19T07:03:18;102038.88;;;18.97;45.35
61710;BME280;47633;51.494;5.386;2023-02-19T07:05:43;102032.66;;;18.98;45.32
61710;BME280;47633;51.494;5.386;2023-02-19T07:08:09;102041.41;;;18.98;45.41
61710;BME280;47633;51.494;5.386;2023-02-19T07:10:34;102049.13;;;19.01;45.41
61710;BME280;47633;51.494;5.386;2023-02-19T07:12:59;102051.03;;;18.99;45.02
61710;BME280;47633;51.494;5.386;2023-02-19T07:15:25;102055.25;;;19.02;45.32
61710;BME280;47633;51.494;5.386;2023-02-19T07:17:50;102057.16;;;19.00;45.30
61710;BME280;47633;51.494;5.386;2023-02-19T07:20:15;102063.91;;;19.04;45.11
61710;BME280;47633;51.494;5.386;2023-02-19T07:22:41;102062.25;;;19.03;45.27
61710;BME280;47633;51.494;5.386;2023-02-19T07:25:06;102064.88;;;19.03;45.21
61710;BME280;47633;51.494;5.386;2023-02-19T07:27:31;102071.00;;;19.03;45.12
61710;BME280;47633;51.494;5.386;2023-02-19T07:29:57;102087.50;;;19.07;45.06
61710;BME280;47633;51.494;5.386;2023-02-19T07:32:23;102096.28;;;19.08;45.10
61710;BME280;47633;51.494;5.386;2023-02-19T07:34:48;102096.19;;;19.09;45.16
61710;BME280;47633;51.494;5.386;2023-02-19T07:37:13;102105.06;;;19.08;45.19
61710;BME280;47633;51.494;5.386;2023-02-19T07:39:39;102103.25;;;19.09;45.09
61710;BME280;47633;51.494;5.386;2023-02-19T07:42:04;102103.53;;;19.04;45.08
61710;BME280;47633;51.494;5.386;2023-02-19T07:44:29;102113.91;;;19.07;45.22
61710;BME280;47633;51.494;5.386;2023-02-19T07:46:54;102118.25;;;19.08;45.02
61710;BME280;47633;51.494;5.386;2023-02-19T07:49:20;102117.63;;;19.05;45.25
61710;BME280;47633;51.494;5.386;2023-02-19T07:51:45;102121.84;;;19.07;45.06
61710;BME280;47633;51.494;5.386;2023-02-19T07:54:10;102132.41;;;19.07;45.12
61710;BME280;47633;51.494;5.386;2023-02-19T07:56:36;102138.66;;;19.06;45.08
61710;BME280;47633;51.494;5.386;2023-02-19T07:59:01;102138.75;;;19.05;45.00
61710;BME280;47633;51.494;5.386;2023-02-19T08:01:26;102144.78;;;19.07;45.13
61710;BME280;47633;51.494;5.386;2023-02-19T08:04:12;102152.72;;;19.07;45.20
61710;BME280;47633;51.494;5.386;2023-02-19T08:06:38;102148.25;;;19.07;45.09
61710;BME280;47633;51.494;5.386;2023-02-19T08:09:04;102157.91;;;19.08;45.05
61710;BME280;47633;51.494;5.386;2023-02-19T08:11:30;102164.97;;;19.08;45.05
61710;BME280;47633;51.494;5.386;2023-02-19T08:14:13;102170.19;;;19.09;45.00
61710;BME280;47633;51.494;5.386;2023-02-19T08:16:39;102167.53;;;19.09;45.10
61710;BME280;47633;51.494;5.386;2023-02-19T08:19:04;102164.22;;;19.06;45.73
61710;BME280;47633;51.494;5.386;2023-02-19T08:21:29;102165.19;;;19.05;45.18
61710;BME280;47633;51.494;5.386;2023-02-19T08:23:54;102172.13;;;19.06;45.40
61710;BME280;47633;51.494;5.386;2023-02-19T08:26:20;102179.22;;;19.05;45.60
61710;BME280;47633;51.494;5.386;2023-02-19T08:28:47;102182.81;;;19.04;45.96
61710;BME280;47633;51.494;5.386;2023-02-19T08:31:12;102183.56;;;19.06;45.93
61710;BME280;47633;51.494;5.386;2023-02-19T08:33:38;102182.81;;;19.04;45.94
61710;BME280;47633;51.494;5.386;2023-02-19T08:36:04;102186.31;;;19.05;46.45
61710;BME280;47633;51.494;5.386;2023-02-19T08:38:32;102188.66;;;19.09;46.56
61710;BME280;47633;51.494;5.386;2023-02-19T08:41:03;102193.09;;;19.09;46.45
61710;BME280;47633;51.494;5.386;2023-02-19T08:43:29;102185.25;;;19.07;46.43
61710;BME280;47633;51.494;5.386;2023-02-19T08:45:54;102186.03;;;19.09;46.53
61710;BME280;47633;51.494;5.386;2023-02-19T08:48:19;102184.31;;;19.08;46.48
61710;BME280;47633;51.494;5.386;2023-02-19T08:50:52;102189.69;;;19.07;46.64
61710;BME280;47633;51.494;5.386;2023-02-19T08:53:17;102190.16;;;19.13;46.71
61710;BME280;47633;51.494;5.386;2023-02-19T08:55:43;102192.50;;;19.18;46.73
61710;BME280;47633;51.494;5.386;2023-02-19T08:58:09;102199.94;;;19.26;46.45
61710;BME280;47633;51.494;5.386;2023-02-19T09:00:34;102199.84;;;19.27;46.36
61710;BME280;47633;51.494;5.386;2023-02-19T09:03:00;102201.53;;;19.28;46.09
61710;BME280;47633;51.494;5.386;2023-02-19T09:05:25;102211.25;;;19.28;46.20
61710;BME280;47633;51.494;5.386;2023-02-19T09:07:51;102224.38;;;19.29;46.05
61710;BME280;47633;51.494;5.386;2023-02-19T09:10:16;102227.00;;;19.29;45.98
61710;BME280;47633;51.494;5.386;2023-02-19T09:12:41;102223.53;;;19.29;46.06
61710;BME280;47633;51.494;5.386;2023-02-19T09:15:08;102224.66;;;19.25;46.33
61710;BME280;47633;51.494;5.386;2023-02-19T09:17:34;102224.66;;;19.25;46.18
61710;BME280;47633;51.494;5.386;2023-02-19T09:19:59;102211.44;;;19.25;46.16
61710;BME280;47633;51.494;5.386;2023-02-19T09:22:24;102209.75;;;19.24;46.10
61710;BME280;47633;51.494;5.386;2023-02-19T09:24:49;102214.84;;;19.27;46.18
61710;BME280;47633;51.494;5.386;2023-02-19T09:27:16;102217.59;;;19.25;46.10
61710;BME280;47633;51.494;5.386;2023-02-19T09:29:42;102220.25;;;19.25;46.14
61710;BME280;47633;51.494;5.386;2023-02-19T09:32:07;102213.34;;;19.23;46.25
61710;BME280;47633;51.494;5.386;2023-02-19T09:34:33;102221.38;;;19.21;46.14
61710;BME280;47633;51.494;5.386;2023-02-19T09:36:58;102236.28;;;19.22;46.11
61710;BME280;47633;51.494;5.386;2023-02-19T09:39:23;102230.91;;;19.24;46.16
61710;BME280;47633;51.494;5.386;2023-02-19T09:42:11;102235.44;;;19.21;46.11
61710;BME280;47633;51.494;5.386;2023-02-19T09:44:41;102237.88;;;19.25;46.03
61710;BME280;47633;51.494;5.386;2023-02-19T09:47:15;102230.38;;;19.18;46.04
61710;BME280;47633;51.494;5.386;2023-02-19T09:49:43;102228.28;;;19.24;46.05
61710;BME280;47633;51.494;5.386;2023-02-19T09:52:25;102239.78;;;19.23;45.99
61710;BME280;47633;51.494;5.386;2023-02-19T09:54:53;102257.53;;;19.20;46.04
61710;BME280;47633;51.494;5.386;2023-02-19T09:57:22;102271.59;;;19.21;46.08
61710;BME280;47633;51.494;5.386;2023-02-19T10:02:43;102287.44;;;19.21;45.78
61710;BME280;47633;51.494;5.386;2023-02-19T10:05:12;102273.03;;;19.12;45.78
61710;BME280;47633;51.494;5.386;2023-02-19T10:07:43;102281.59;;;19.16;45.96
61710;BME280;47633;51.494;5.386;2023-02-19T10:12:49;102299.16;;;19.17;45.98
61710;BME280;47633;51.494;5.386;2023-02-19T10:15:19;102303.59;;;19.16;46.01
61710;BME280;47633;51.494;5.386;2023-02-19T10:17:47;102295.84;;;19.13;46.19
61710;BME280;47633;51.494;5.386;2023-02-19T10:20:18;102299.47;;;19.12;46.24
61710;BME280;47633;51.494;5.386;2023-02-19T10:22:46;102308.88;;;19.16;46.01
61710;BME280;47633;51.494;5.386;2023-02-19T10:25:14;102311.41;;;19.18;46.01
61710;BME280;47633;51.494;5.386;2023-02-19T10:27:40;102312.38;;;19.17;46.10
61710;BME280;47633;51.494;5.386;2023-02-19T10:30:14;102312.28;;;19.18;46.11
61710;BME280;47633;51.494;5.386;2023-02-19T10:32:57;102317.66;;;19.17;46.08
61710;BME280;47633;51.494;5.386;2023-02-19T10:35:23;102327.19;;;19.19;46.08
61710;BME280;47633;51.494;5.386;2023-02-19T10:37:50;102337.94;;;19.16;45.97
61710;BME280;47633;51.494;5.386;2023-02-19T10:40:20;102337.94;;;19.16;46.24
61710;BME280;47633;51.494;5.386;2023-02-19T10:42:52;102352.03;;;19.17;46.29
61710;BME280;47633;51.494;5.386;2023-02-19T10:45:29;102352.22;;;19.14;46.14
61710;BME280;47633;51.494;5.386;2023-02-19T10:47:58;102357.31;;;19.17;46.26
61710;BME280;47633;51.494;5.386;2023-02-19T10:50:30;102358.34;;;19.14;46.16
61710;BME280;47633;51.494;5.386;2023-02-19T10:52:57;102353.25;;;19.11;46.15
61710;BME280;47633;51.494;5.386;2023-02-19T10:55:26;102366.38;;;19.13;46.17
61710;BME280;47633;51.494;5.386;2023-02-19T10:57:53;102367.97;;;19.15;45.87
61710;BME280;47633;51.494;5.386;2023-02-19T11:00:37;102363.72;;;19.13;46.09
61710;BME280;47633;51.494;5.386;2023-02-19T11:03:19;102371.47;;;19.16;45.79
61710;BME280;47633;51.494;5.386;2023-02-19T11:05:59;102363.53;;;19.16;45.94
61710;BME280;47633;51.494;5.386;2023-02-19T11:08:26;102359.09;;;19.16;46.01
61710;BME280;47633;51.494;5.386;2023-02-19T11:10:52;102353.72;;;19.18;46.26
61710;BME280;47633;51.494;5.386;2023-02-19T11:13:29;102364.66;;;19.12;46.33
61710;BME280;47633;51.494;5.386;2023-02-19T11:15:57;102367.28;;;19.12;46.27
61710;BME280;47633;51.494;5.386;2023-02-19T11:18:29;102368.34;;;19.09;46.56
61710;BME280;47633;51.494;5.386;2023-02-19T11:20:58;102353.44;;;19.08;46.58
61710;BME280;47633;51.494;5.386;2023-02-19T11:23:25;102356.72;;;19.12;46.43
61710;BME280;47633;51.494;5.386;2023-02-19T11:25:53;102353.16;;;19.13;46.69
61710;BME280;47633;51.494;5.386;2023-02-19T11:28:27;102344.94;;;19.17;46.36
61710;BME280;47633;51.494;5.386;2023-02-19T11:30:54;102336.06;;;19.18;46.30
61710;BME280;47633;51.494;5.386;2023-02-19T11:33:23;102345.22;;;19.27;46.10
61710;BME280;47633;51.494;5.386;2023-02-19T11:35:57;102344.72;;;19.35;46.24
61710;BME280;47633;51.494;5.386;2023-02-19T11:38:23;102346.03;;;19.42;45.96
61710;BME280;47633;51.494;5.386;2023-02-19T11:44:19;102350.28;;;19.45;45.79
61710;BME280;47633;51.494;5.386;2023-02-19T11:52:30;102357.56;;;19.41;45.77
61710;BME280;47633;51.494;5.386;2023-02-19T11:57:45;102348.22;;;19.35;46.00
61710;BME280;47633;51.494;5.386;2023-02-19T12:00:30;102348.31;;;19.34;46.00
61710;BME280;47633;51.494;5.386;2023-02-19T12:06:00;102357.75;;;19.38;45.81
61710;BME280;47633;51.494;5.386;2023-02-19T12:08:40;102350.03;;;19.35;46.12
61710;BME280;47633;51.494;5.386;2023-02-19T12:16:43;102336.81;;;19.35;45.68
61710;BME280;47633;51.494;5.386;2023-02-19T12:22:03;102336.91;;;19.33;45.62
61710;BME280;47633;51.494;5.386;2023-02-19T12:33:56;102343.50;;;19.26;45.86
61710;BME280;47633;51.494;5.386;2023-02-19T12:39:11;102347.41;;;19.20;46.01
61710;BME280;47633;51.494;5.386;2023-02-19T12:42:00;102357.59;;;19.27;44.43
61710;BME280;47633;51.494;5.386;2023-02-19T12:47:04;102338.59;;;19.20;45.37
61710;BME280;47633;51.494;5.386;2023-02-19T12:49:49;102344.84;;;19.19;45.67
61710;BME280;47633;51.494;5.386;2023-02-19T12:52:20;102353.53;;;19.21;45.62
61710;BME280;47633;51.494;5.386;2023-02-19T12:54:50;102345.69;;;19.19;45.67
61710;BME280;47633;51.494;5.386;2023-02-19T12:57:21;102347.47;;;19.33;45.50
61710;BME280;47633;51.494;5.386;2023-02-19T12:59:54;102352.09;;;19.44;45.27
61710;BME280;47633;51.494;5.386;2023-02-19T13:02:47;102346.41;;;19.50;44.63
61710;BME280;47633;51.494;5.386;2023-02-19T13:05:20;102356.78;;;19.53;44.61
61710;BME280;47633;51.494;5.386;2023-02-19T13:08:02;102353.38;;;19.51;44.65
61710;BME280;47633;51.494;5.386;2023-02-19T13:10:40;102359.16;;;19.44;44.47
61710;BME280;47633;51.494;5.386;2023-02-19T13:13:18;102373.81;;;19.35;45.10
61710;BME280;47633;51.494;5.386;2023-02-19T13:15:49;102375.13;;;19.28;45.18
61710;BME280;47633;51.494;5.386;2023-02-19T13:18:23;102380.59;;;19.25;45.46
61710;BME280;47633;51.494;5.386;2023-02-19T13:20:50;102382.41;;;19.24;45.48
61710;BME280;47633;51.494;5.386;2023-02-19T13:23:28;102389.50;;;19.24;45.49
61710;BME280;47633;51.494;5.386;2023-02-19T13:32:19;102388.53;;;19.25;45.49
61710;BME280;47633;51.494;5.386;2023-02-19T13:37:40;102399.97;;;19.25;45.29
61710;BME280;47633;51.494;5.386;2023-02-19T13:40:36;102413.09;;;19.27;45.24
61710;BME280;47633;51.494;5.386;2023-02-19T13:43:06;102405.16;;;19.27;45.26
61710;BME280;47633;51.494;5.386;2023-02-19T13:45:41;102407.81;;;19.27;45.29
61710;BME280;47633;51.494;5.386;2023-02-19T13:48:28;102410.34;;;19.28;45.19
61710;BME280;47633;51.494;5.386;2023-02-19T14:04:23;102450.94;;;19.56;44.01
61710;BME280;47633;51.494;5.386;2023-02-19T14:07:20;102453.69;;;19.54;44.26
61710;BME280;47633;51.494;5.386;2023-02-19T14:09:46;102448.19;;;19.57;43.96
61710;BME280;47633;51.494;5.386;2023-02-19T14:30:41;102463.41;;;19.39;43.99
61710;BME280;47633;51.494;5.386;2023-02-19T14:33:09;102473.72;;;19.44;43.83
61710;BME280;47633;51.494;5.386;2023-02-19T14:35:39;102465.00;;;19.42;43.98
61710;BME280;47633;51.494;5.386;2023-02-19T14:38:06;102466.91;;;19.40;43.83
61710;BME280;47633;51.494;5.386;2023-02-19T14:40:39;102455.56;;;19.38;43.78
61710;BME280;47633;51.494;5.386;2023-02-19T14:43:13;102455.56;;;19.38;43.90
61710;BME280;47633;51.494;5.386;2023-02-19T14:45:43;102448.75;;;19.34;43.98
61710;BME280;47633;51.494;5.386;2023-02-19T14:48:31;102463.69;;;19.35;43.93
61710;BME280;47633;51.494;5.386;2023-02-19T14:51:05;102459.34;;;19.34;44.01